sensor_id;sensor_type;location;lat;lon;timestamp;pressure;altitude;pressure_sealevel;temperature;humidity
30873;BME280;17579;42.690;2.586;2022-07-25T00:00:35;97105.56;;;29.28;43.60
30873;BME280;17579;42.690;2.586;2022-07-25T00:03:01;97103.41;;;29.25;43.32
30873;BME280;17579;42.690;2.586;2022-07-25T00:05:27;97102.81;;;29.23;43.83
30873;BME280;17579;42.690;2.586;2022-07-25T00:07:53;97102.25;;;29.21;43.43
30873;BME280;17579;42.690;2.586;2022-07-25T00:10:21;97103.34;;;29.20;43.27
30873;BME280;17579;42.690;2.586;2022-07-25T00:12:47;97110.13;;;29.17;43.58
30873;BME280;17579;42.690;2.586;2022-07-25T00:15:13;97102.50;;;29.14;43.64
30873;BME280;17579;42.690;2.586;2022-07-25T00:17:39;97098.94;;;29.09;43.37
30873;BME280;17579;42.690;2.586;2022-07-25T00:20:05;97096.47;;;29.02;43.70
30873;BME280;17579;42.690;2.586;2022-07-25T00:22:31;97099.75;;;28.99;43.77
30873;BME280;17579;42.690;2.586;2022-07-25T00:24:57;97097.03;;;28.94;43.94
30873;BME280;17579;42.690;2.586;2022-07-25T00:27:22;97087.47;;;28.91;44.27
30873;BME280;17579;42.690;2.586;2022-07-25T00:29:48;97095.06;;;28.89;44.27
30873;BME280;17579;42.690;2.586;2022-07-25T00:32:13;97093.47;;;28.88;44.01
30873;BME280;17579;42.690;2.586;2022-07-25T00:34:39;97099.44;;;28.85;44.19
30873;BME280;17579;42.690;2.586;2022-07-25T00:37:05;97093.97;;;28.80;44.01
30873;BME280;17579;42.690;2.586;2022-07-25T00:39:31;97090.97;;;28.76;44.36
30873;BME280;17579;42.690;2.586;2022-07-25T00:41:57;97095.59;;;28.76;44.08
30873;BME280;17579;42.690;2.586;2022-07-25T00:44:24;97089.88;;;28.72;44.29
30873;BME280;17579;42.690;2.586;2022-07-25T00:46:51;97090.69;;;28.73;44.42
30873;BME280;17579;42.690;2.586;2022-07-25T00:49:17;97083.31;;;28.73;44.50
30873;BME280;17579;42.690;2.586;2022-07-25T00:51:43;97090.13;;;28.71;43.97
30873;BME280;17579;42.690;2.586;2022-07-25T00:54:09;97089.84;;;28.67;43.77
30873;BME280;17579;42.690;2.586;2022-07-25T00:56:36;97087.91;;;28.62;43.93
30873;BME280;17579;42.690;2.586;2022-07-25T00:59:02;97090.03;;;28.60;44.16
30873;BME280;17579;42.690;2.586;2022-07-25T01:01:27;97087.31;;;28.60;43.58
30873;BME280;17579;42.690;2.586;2022-07-25T01:03:53;97088.16;;;28.61;43.89
30873;BME280;17579;42.690;2.586;2022-07-25T01:06:19;97094.13;;;28.58;43.46
30873;BME280;17579;42.690;2.586;2022-07-25T01:08:45;97099.28;;;28.54;43.41
30873;BME280;17579;42.690;2.586;2022-07-25T01:11:12;97097.09;;;28.51;43.53
30873;BME280;17579;42.690;2.586;2022-07-25T01:13:37;97107.94;;;28.46;43.23
30873;BME280;17579;42.690;2.586;2022-07-25T01:16:03;97111.44;;;28.41;43.66
30873;BME280;17579;42.690;2.586;2022-07-25T01:18:30;97120.34;;;28.26;44.05
30873;BME280;17579;42.690;2.586;2022-07-25T01:20:56;97124.88;;;28.10;44.29
30873;BME280;17579;42.690;2.586;2022-07-25T01:23:21;97118.78;;;27.98;45.26
30873;BME280;17579;42.690;2.586;2022-07-25T01:25:47;97121.19;;;27.94;45.44
30873;BME280;17579;42.690;2.586;2022-07-25T01:28:13;97132.31;;;27.93;45.67
30873;BME280;17579;42.690;2.586;2022-07-25T01:30:38;97122.78;;;27.90;45.76
30873;BME280;17579;42.690;2.586;2022-07-25T01:33:04;97119.22;;;27.85;45.97
30873;BME280;17579;42.690;2.586;2022-07-25T01:35:30;97135.53;;;27.85;46.22
30873;BME280;17579;42.690;2.586;2022-07-25T01:37:55;97128.44;;;27.83;46.26
30873;BME280;17579;42.690;2.586;2022-07-25T01:40:21;97131.09;;;27.78;46.50
30873;BME280;17579;42.690;2.586;2022-07-25T01:42:46;97124.84;;;27.78;46.57
30873;BME280;17579;42.690;2.586;2022-07-25T01:45:12;97135.72;;;27.78;45.63
30873;BME280;17579;42.690;2.586;2022-07-25T01:47:38;97135.78;;;27.83;44.77
30873;BME280;17579;42.690;2.586;2022-07-25T01:50:05;97135.53;;;27.85;44.67
30873;BME280;17579;42.690;2.586;2022-07-25T01:52:31;97140.13;;;27.84;43.38
30873;BME280;17579;42.690;2.586;2022-07-25T01:54:56;97134.69;;;27.84;43.58
30873;BME280;17579;42.690;2.586;2022-07-25T01:57:22;97132.28;;;27.88;43.29
30873;BME280;17579;42.690;2.586;2022-07-25T01:59:48;97130.13;;;27.90;43.02
30873;BME280;17579;42.690;2.586;2022-07-25T02:02:13;97130.94;;;27.90;42.89
30873;BME280;17579;42.690;2.586;2022-07-25T02:04:39;97136.94;;;27.92;42.54
30873;BME280;17579;42.690;2.586;2022-07-25T02:07:05;97126.63;;;27.94;42.79
30873;BME280;17579;42.690;2.586;2022-07-25T02:09:30;97130.47;;;27.98;42.47
30873;BME280;17579;42.690;2.586;2022-07-25T02:11:56;97132.94;;;28.00;42.73
30873;BME280;17579;42.690;2.586;2022-07-25T02:14:22;97132.13;;;27.99;42.08
30873;BME280;17579;42.690;2.586;2022-07-25T02:16:47;97135.34;;;27.96;41.90
30873;BME280;17579;42.690;2.586;2022-07-25T02:19:13;97120.69;;;27.97;41.98
30873;BME280;17579;42.690;2.586;2022-07-25T02:21:39;97126.13;;;27.97;42.24
30873;BME280;17579;42.690;2.586;2022-07-25T02:24:04;97125.81;;;27.94;41.72
30873;BME280;17579;42.690;2.586;2022-07-25T02:26:31;97124.94;;;27.88;42.07
30873;BME280;17579;42.690;2.586;2022-07-25T02:28:57;97125.19;;;27.87;42.34
30873;BME280;17579;42.690;2.586;2022-07-25T02:31:22;97126.53;;;27.84;42.55
30873;BME280;17579;42.690;2.586;2022-07-25T02:33:48;97123.53;;;27.80;42.13
30873;BME280;17579;42.690;2.586;2022-07-25T02:36:13;97133.56;;;27.80;42.52
30873;BME280;17579;42.690;2.586;2022-07-25T02:38:39;97124.84;;;27.78;42.46
30873;BME280;17579;42.690;2.586;2022-07-25T02:41:04;97132.47;;;27.76;42.29
30873;BME280;17579;42.690;2.586;2022-07-25T02:43:30;97129.50;;;27.77;42.63
30873;BME280;17579;42.690;2.586;2022-07-25T02:45:56;97131.09;;;27.78;42.47
30873;BME280;17579;42.690;2.586;2022-07-25T02:48:21;97131.94;;;27.79;43.30
30873;BME280;17579;42.690;2.586;2022-07-25T02:50:47;97129.44;;;27.72;43.96
30873;BME280;17579;42.690;2.586;2022-07-25T02:53:12;97129.41;;;27.67;44.78
30873;BME280;17579;42.690;2.586;2022-07-25T02:55:38;97134.22;;;27.60;45.13
30873;BME280;17579;42.690;2.586;2022-07-25T02:58:03;97140.94;;;27.52;45.87
30873;BME280;17579;42.690;2.586;2022-07-25T03:00:29;97130.53;;;27.44;45.87
30873;BME280;17579;42.690;2.586;2022-07-25T03:02:55;97132.09;;;27.35;46.05
30873;BME280;17579;42.690;2.586;2022-07-25T03:05:21;97140.13;;;27.29;45.96
30873;BME280;17579;42.690;2.586;2022-07-25T03:07:46;97141.97;;;27.24;45.92
30873;BME280;17579;42.690;2.586;2022-07-25T03:10:13;97144.41;;;27.20;46.58
30873;BME280;17579;42.690;2.586;2022-07-25T03:12:40;97142.44;;;27.16;46.86
30873;BME280;17579;42.690;2.586;2022-07-25T03:15:06;97143.19;;;27.11;46.94
30873;BME280;17579;42.690;2.586;2022-07-25T03:17:32;97139.38;;;27.07;46.97
30873;BME280;17579;42.690;2.586;2022-07-25T03:19:58;97146.66;;;27.06;46.81
30873;BME280;17579;42.690;2.586;2022-07-25T03:22:24;97152.09;;;27.06;47.19
30873;BME280;17579;42.690;2.586;2022-07-25T03:24:50;97148.25;;;27.02;47.23
30873;BME280;17579;42.690;2.586;2022-07-25T03:27:16;97148.75;;;26.99;47.47
30873;BME280;17579;42.690;2.586;2022-07-25T03:29:42;97150.09;;;26.96;47.75
30873;BME280;17579;42.690;2.586;2022-07-25T03:32:08;97156.59;;;26.95;48.27
30873;BME280;17579;42.690;2.586;2022-07-25T03:34:34;97162.28;;;26.94;48.06
30873;BME280;17579;42.690;2.586;2022-07-25T03:37:00;97159.00;;;26.92;47.98
30873;BME280;17579;42.690;2.586;2022-07-25T03:39:27;97154.59;;;26.86;47.96
30873;BME280;17579;42.690;2.586;2022-07-25T03:41:52;97146.38;;;26.80;48.34
30873;BME280;17579;42.690;2.586;2022-07-25T03:44:18;97146.06;;;26.77;48.34
30873;BME280;17579;42.690;2.586;2022-07-25T03:46:44;97155.53;;;26.74;48.34
30873;BME280;17579;42.690;2.586;2022-07-25T03:49:10;97149.28;;;26.74;48.38
30873;BME280;17579;42.690;2.586;2022-07-25T03:51:36;97152.00;;;26.74;48.34
30873;BME280;17579;42.690;2.586;2022-07-25T03:54:02;97150.84;;;26.70;48.31
30873;BME280;17579;42.690;2.586;2022-07-25T03:59:08;97151.66;;;26.70;48.82
30873;BME280;17579;42.690;2.586;2022-07-25T04:01:35;97150.84;;;26.70;48.85
30873;BME280;17579;42.690;2.586;2022-07-25T04:04:01;97151.34;;;26.67;48.74
30873;BME280;17579;42.690;2.586;2022-07-25T04:06:27;97155.91;;;26.66;48.84
30873;BME280;17579;42.690;2.586;2022-07-25T04:08:53;97152.41;;;26.66;48.44
30873;BME280;17579;42.690;2.586;2022-07-25T04:11:21;97165.38;;;26.63;48.60
30873;BME280;17579;42.690;2.586;2022-07-25T04:13:47;97151.59;;;26.65;48.35
30873;BME280;17579;42.690;2.586;2022-07-25T04:16:13;97155.09;;;26.66;48.23
30873;BME280;17579;42.690;2.586;2022-07-25T04:18:38;97160.78;;;26.64;48.21
30873;BME280;17579;42.690;2.586;2022-07-25T04:21:06;97165.38;;;26.63;48.19
30873;BME280;17579;42.690;2.586;2022-07-25T04:23:31;97162.91;;;26.62;48.12
30873;BME280;17579;42.690;2.586;2022-07-25T04:25:57;97161.03;;;26.62;48.07
30873;BME280;17579;42.690;2.586;2022-07-25T04:28:23;97158.31;;;26.62;48.06
30873;BME280;17579;42.690;2.586;2022-07-25T04:30:49;97166.72;;;26.61;48.42
30873;BME280;17579;42.690;2.586;2022-07-25T04:33:15;97164.81;;;26.61;47.93
30873;BME280;17579;42.690;2.586;2022-07-25T04:35:41;97162.59;;;26.58;48.14
30873;BME280;17579;42.690;2.586;2022-07-25T04:38:07;97162.88;;;26.57;47.23
30873;BME280;17579;42.690;2.586;2022-07-25T04:40:32;97160.41;;;26.55;47.89
30873;BME280;17579;42.690;2.586;2022-07-25T04:42:58;97169.34;;;26.56;47.88
30873;BME280;17579;42.690;2.586;2022-07-25T04:45:24;97173.38;;;26.53;48.01
30873;BME280;17579;42.690;2.586;2022-07-25T04:47:49;97164.09;;;26.49;47.47
30873;BME280;17579;42.690;2.586;2022-07-25T04:50:15;97171.16;;;26.50;47.03
30873;BME280;17579;42.690;2.586;2022-07-25T04:52:42;97176.03;;;26.48;47.12
30873;BME280;17579;42.690;2.586;2022-07-25T04:55:07;97168.72;;;26.49;47.19
30873;BME280;17579;42.690;2.586;2022-07-25T04:57:33;97171.41;;;26.49;46.69
30873;BME280;17579;42.690;2.586;2022-07-25T04:59:59;97177.44;;;26.51;46.92
30873;BME280;17579;42.690;2.586;2022-07-25T05:02:25;97182.34;;;26.54;46.98
30873;BME280;17579;42.690;2.586;2022-07-25T05:04:51;97176.44;;;26.57;46.70
30873;BME280;17579;42.690;2.586;2022-07-25T05:07:17;97184.88;;;26.60;46.78
30873;BME280;17579;42.690;2.586;2022-07-25T05:09:43;97182.16;;;26.60;45.96
30873;BME280;17579;42.690;2.586;2022-07-25T05:12:10;97176.22;;;26.63;45.80
30873;BME280;17579;42.690;2.586;2022-07-25T05:14:36;97182.50;;;26.64;45.45
30873;BME280;17579;42.690;2.586;2022-07-25T05:17:01;97174.44;;;26.69;45.29
30873;BME280;17579;42.690;2.586;2022-07-25T05:19:27;97180.44;;;26.71;45.41
30873;BME280;17579;42.690;2.586;2022-07-25T05:21:52;97179.13;;;26.74;45.20
30873;BME280;17579;42.690;2.586;2022-07-25T05:24:18;97191.44;;;26.82;45.28
30873;BME280;17579;42.690;2.586;2022-07-25T05:26:44;97181.75;;;26.91;45.25
30873;BME280;17579;42.690;2.586;2022-07-25T05:29:09;97187.09;;;27.03;45.12
30873;BME280;17579;42.690;2.586;2022-07-25T05:31:35;97192.06;;;27.11;45.05
30873;BME280;17579;42.690;2.586;2022-07-25T05:34:01;97189.75;;;27.20;44.41
30873;BME280;17579;42.690;2.586;2022-07-25T05:36:27;97186.00;;;27.26;44.35
30873;BME280;17579;42.690;2.586;2022-07-25T05:38:52;97190.41;;;27.32;44.02
30873;BME280;17579;42.690;2.586;2022-07-25T05:41:19;97186.22;;;27.41;43.67
30873;BME280;17579;42.690;2.586;2022-07-25T05:43:44;97181.94;;;27.51;43.56
30873;BME280;17579;42.690;2.586;2022-07-25T05:46:12;97187.72;;;27.59;43.24
30873;BME280;17579;42.690;2.586;2022-07-25T05:48:38;97191.06;;;27.66;43.17
30873;BME280;17579;42.690;2.586;2022-07-25T05:51:03;97180.53;;;27.75;42.97
30873;BME280;17579;42.690;2.586;2022-07-25T05:53:29;97182.53;;;27.85;42.99
30873;BME280;17579;42.690;2.586;2022-07-25T05:55:55;97185.84;;;27.92;42.62
30873;BME280;17579;42.690;2.586;2022-07-25T05:58:21;97181.63;;;28.02;42.75
30873;BME280;17579;42.690;2.586;2022-07-25T06:00:47;97184.44;;;28.17;42.37
30873;BME280;17579;42.690;2.586;2022-07-25T06:03:12;97184.25;;;28.24;42.30
30873;BME280;17579;42.690;2.586;2022-07-25T06:05:38;97184.53;;;28.27;42.16
30873;BME280;17579;42.690;2.586;2022-07-25T06:08:04;97181.06;;;28.37;41.94
30873;BME280;17579;42.690;2.586;2022-07-25T06:10:30;97177.63;;;28.52;42.01
30873;BME280;17579;42.690;2.586;2022-07-25T06:12:55;97185.88;;;28.62;41.91
30873;BME280;17579;42.690;2.586;2022-07-25T06:15:21;97178.03;;;28.71;41.73
30873;BME280;17579;42.690;2.586;2022-07-25T06:17:46;97184.06;;;28.78;41.23
30873;BME280;17579;42.690;2.586;2022-07-25T06:20:12;97185.97;;;28.83;41.47
30873;BME280;17579;42.690;2.586;2022-07-25T06:22:38;97195.56;;;28.91;41.37
30873;BME280;17579;42.690;2.586;2022-07-25T06:25:05;97193.16;;;28.99;41.19
30873;BME280;17579;42.690;2.586;2022-07-25T06:27:30;97189.34;;;29.06;41.31
30873;BME280;17579;42.690;2.586;2022-07-25T06:29:56;97194.56;;;29.17;41.09
30873;BME280;17579;42.690;2.586;2022-07-25T06:32:22;97192.72;;;29.23;40.84
30873;BME280;17579;42.690;2.586;2022-07-25T06:34:48;97193.56;;;29.34;40.73
30873;BME280;17579;42.690;2.586;2022-07-25T06:37:13;97195.47;;;29.44;40.62
30873;BME280;17579;42.690;2.586;2022-07-25T06:39:40;97188.97;;;29.50;40.63
30873;BME280;17579;42.690;2.586;2022-07-25T06:42:06;97193.09;;;29.52;40.39
30873;BME280;17579;42.690;2.586;2022-07-25T06:44:33;97200.16;;;29.53;40.28
30873;BME280;17579;42.690;2.586;2022-07-25T06:47:00;97193.63;;;29.65;40.60
30873;BME280;17579;42.690;2.586;2022-07-25T06:49:26;97202.66;;;29.81;40.17
30873;BME280;17579;42.690;2.586;2022-07-25T06:51:51;97207.63;;;29.94;40.04
30873;BME280;17579;42.690;2.586;2022-07-25T06:54:17;97208.72;;;30.09;40.16
30873;BME280;17579;42.690;2.586;2022-07-25T06:56:43;97202.16;;;30.20;39.79
30873;BME280;17579;42.690;2.586;2022-07-25T06:59:09;97200.78;;;30.22;39.66
30873;BME280;17579;42.690;2.586;2022-07-25T07:01:35;97205.44;;;30.22;39.41
30873;BME280;17579;42.690;2.586;2022-07-25T07:04:01;97198.88;;;30.23;39.65
30873;BME280;17579;42.690;2.586;2022-07-25T07:06:27;97206.53;;;30.26;39.33
30873;BME280;17579;42.690;2.586;2022-07-25T07:08:52;97192.88;;;30.41;39.23
30873;BME280;17579;42.690;2.586;2022-07-25T07:11:18;97204.88;;;30.51;39.55
30873;BME280;17579;42.690;2.586;2022-07-25T07:13:44;97189.84;;;30.69;39.23
30873;BME280;17579;42.690;2.586;2022-07-25T07:16:09;97194.16;;;30.85;39.13
30873;BME280;17579;42.690;2.586;2022-07-25T07:18:36;97201.47;;;31.05;38.95
30873;BME280;17579;42.690;2.586;2022-07-25T07:21:03;97194.31;;;31.20;38.53
30873;BME280;17579;42.690;2.586;2022-07-25T07:23:29;97197.03;;;31.25;38.29
30873;BME280;17579;42.690;2.586;2022-07-25T07:25:55;97195.34;;;31.29;38.18
30873;BME280;17579;42.690;2.586;2022-07-25T07:28:20;97193.69;;;31.33;38.37
30873;BME280;17579;42.690;2.586;2022-07-25T07:30:46;97198.06;;;31.39;38.10
30873;BME280;17579;42.690;2.586;2022-07-25T07:33:12;97193.59;;;31.59;37.83
30873;BME280;17579;42.690;2.586;2022-07-25T07:35:38;97199.47;;;31.76;37.83
30873;BME280;17579;42.690;2.586;2022-07-25T07:38:04;97210.81;;;31.99;37.46
30873;BME280;17579;42.690;2.586;2022-07-25T07:40:31;97206.69;;;32.02;37.11
30873;BME280;17579;42.690;2.586;2022-07-25T07:42:56;97211.31;;;32.06;37.17
30873;BME280;17579;42.690;2.586;2022-07-25T07:45:25;97206.19;;;31.94;37.09
30873;BME280;17579;42.690;2.586;2022-07-25T07:47:53;97208.38;;;31.58;37.56
30873;BME280;17579;42.690;2.586;2022-07-25T07:50:22;97212.63;;;31.19;38.33
30873;BME280;17579;42.690;2.586;2022-07-25T07:52:52;97215.97;;;30.96;38.63
30873;BME280;17579;42.690;2.586;2022-07-25T07:55:19;97207.84;;;30.75;38.83
30873;BME280;17579;42.690;2.586;2022-07-25T07:57:57;97203.22;;;30.50;39.33
30873;BME280;17579;42.690;2.586;2022-07-25T08:00:25;97208.69;;;30.14;39.68
30873;BME280;17579;42.690;2.586;2022-07-25T08:02:56;97214.69;;;29.90;40.33
30873;BME280;17579;42.690;2.586;2022-07-25T08:05:24;97208.09;;;29.70;40.65
30873;BME280;17579;42.690;2.586;2022-07-25T08:07:51;97213.53;;;29.60;41.08
30873;BME280;17579;42.690;2.586;2022-07-25T08:10:22;97211.63;;;29.55;41.16
30873;BME280;17579;42.690;2.586;2022-07-25T08:12:49;97211.91;;;29.64;41.56
30873;BME280;17579;42.690;2.586;2022-07-25T08:15:16;97206.50;;;29.85;41.29
30873;BME280;17579;42.690;2.586;2022-07-25T08:17:43;97207.59;;;30.51;40.19
30873;BME280;17579;42.690;2.586;2022-07-25T08:20:10;97208.03;;;30.99;39.58
30873;BME280;17579;42.690;2.586;2022-07-25T08:22:41;97198.63;;;31.36;39.21
30873;BME280;17579;42.690;2.586;2022-07-25T08:25:09;97210.59;;;31.40;38.70
30873;BME280;17579;42.690;2.586;2022-07-25T08:27:35;97205.66;;;31.48;38.75
30873;BME280;17579;42.690;2.586;2022-07-25T08:30:04;97200.16;;;31.58;38.22
30873;BME280;17579;42.690;2.586;2022-07-25T08:32:29;97200.13;;;31.63;38.16
30873;BME280;17579;42.690;2.586;2022-07-25T08:34:55;97213.31;;;31.46;38.45
30873;BME280;17579;42.690;2.586;2022-07-25T08:37:21;97210.06;;;31.38;38.11
30873;BME280;17579;42.690;2.586;2022-07-25T08:39:47;97214.84;;;31.72;38.07
30873;BME280;17579;42.690;2.586;2022-07-25T08:42:14;97212.09;;;32.17;37.60
30873;BME280;17579;42.690;2.586;2022-07-25T08:44:41;97217.13;;;32.63;36.45
30873;BME280;17579;42.690;2.586;2022-07-25T08:47:08;97213.88;;;33.10;36.16
30873;BME280;17579;42.690;2.586;2022-07-25T08:49:34;97216.28;;;33.41;35.57
30873;BME280;17579;42.690;2.586;2022-07-25T08:52:01;97211.16;;;33.34;35.44
30873;BME280;17579;42.690;2.586;2022-07-25T08:54:30;97211.88;;;32.96;35.79
30873;BME280;17579;42.690;2.586;2022-07-25T08:56:56;97222.00;;;32.67;35.93
30873;BME280;17579;42.690;2.586;2022-07-25T08:59:21;97220.91;;;32.38;36.44
30873;BME280;17579;42.690;2.586;2022-07-25T09:01:47;97223.91;;;32.02;36.81
30873;BME280;17579;42.690;2.586;2022-07-25T09:04:12;97232.88;;;31.73;37.35
30873;BME280;17579;42.690;2.586;2022-07-25T09:06:48;97226.13;;;31.55;37.55
30873;BME280;17579;42.690;2.586;2022-07-25T09:09:14;97227.78;;;31.51;37.56
30873;BME280;17579;42.690;2.586;2022-07-25T09:11:40;97230.31;;;31.37;38.02
30873;BME280;17579;42.690;2.586;2022-07-25T09:14:08;97229.22;;;31.33;37.75
30873;BME280;17579;42.690;2.586;2022-07-25T09:16:37;97230.34;;;31.22;38.37
30873;BME280;17579;42.690;2.586;2022-07-25T09:19:17;97225.78;;;31.07;38.13
30873;BME280;17579;42.690;2.586;2022-07-25T09:21:44;97235.38;;;30.79;38.54
30873;BME280;17579;42.690;2.586;2022-07-25T09:24:15;97235.72;;;30.62;38.97
30873;BME280;17579;42.690;2.586;2022-07-25T09:26:46;97248.25;;;30.68;38.75
30873;BME280;17579;42.690;2.586;2022-07-25T09:29:23;97244.72;;;30.62;39.14
30873;BME280;17579;42.690;2.586;2022-07-25T09:31:50;97245.81;;;30.61;39.10
30873;BME280;17579;42.690;2.586;2022-07-25T09:34:33;97237.63;;;30.56;39.19
30873;BME280;17579;42.690;2.586;2022-07-25T09:37:00;97242.78;;;30.63;39.26
30873;BME280;17579;42.690;2.586;2022-07-25T09:39:41;97237.03;;;30.74;39.21
30873;BME280;17579;42.690;2.586;2022-07-25T09:45:11;97243.28;;;30.96;39.02
30873;BME280;17579;42.690;2.586;2022-07-25T09:47:56;97255.03;;;30.96;38.50
30873;BME280;17579;42.690;2.586;2022-07-25T09:50:26;97243.53;;;31.04;38.62
30873;BME280;17579;42.690;2.586;2022-07-25T09:52:55;97246.78;;;31.12;38.51
30873;BME280;17579;42.690;2.586;2022-07-25T09:55:22;97249.81;;;31.15;38.39
30873;BME280;17579;42.690;2.586;2022-07-25T09:57:49;97240.19;;;31.23;38.13
30873;BME280;17579;42.690;2.586;2022-07-25T10:00:28;97240.25;;;31.13;38.49
30873;BME280;17579;42.690;2.586;2022-07-25T10:03:14;97240.53;;;31.11;38.60
30873;BME280;17579;42.690;2.586;2022-07-25T10:08:38;97253.63;;;31.14;38.25
30873;BME280;17579;42.690;2.586;2022-07-25T10:11:04;97235.31;;;31.20;38.30
30873;BME280;17579;42.690;2.586;2022-07-25T10:13:32;97238.25;;;31.34;38.09
30873;BME280;17579;42.690;2.586;2022-07-25T10:16:00;97242.28;;;31.47;37.78
30873;BME280;17579;42.690;2.586;2022-07-25T10:18:27;97223.69;;;31.49;37.55
30873;BME280;17579;42.690;2.586;2022-07-25T10:20:56;97223.13;;;31.52;37.73
30873;BME280;17579;42.690;2.586;2022-07-25T10:23:32;97235.94;;;31.56;37.38
30873;BME280;17579;42.690;2.586;2022-07-25T10:26:14;97230.75;;;31.55;37.61
30873;BME280;17579;42.690;2.586;2022-07-25T10:28:49;97236.50;;;31.64;37.28
30873;BME280;17579;42.690;2.586;2022-07-25T10:31:37;97229.97;;;31.59;37.51
30873;BME280;17579;42.690;2.586;2022-07-25T10:34:10;97229.03;;;31.74;37.19
30873;BME280;17579;42.690;2.586;2022-07-25T10:36:48;97234.78;;;31.78;37.26
30873;BME280;17579;42.690;2.586;2022-07-25T10:39:22;97215.84;;;31.87;36.75
30873;BME280;17579;42.690;2.586;2022-07-25T10:41:53;97221.69;;;31.70;36.57
30873;BME280;17579;42.690;2.586;2022-07-25T10:44:20;97215.72;;;31.63;37.03
30873;BME280;17579;42.690;2.586;2022-07-25T10:46:46;97230.47;;;31.56;36.77
30873;BME280;17579;42.690;2.586;2022-07-25T10:49:20;97226.94;;;31.56;36.85
30873;BME280;17579;42.690;2.586;2022-07-25T10:51:59;97213.56;;;31.49;37.03
30873;BME280;17579;42.690;2.586;2022-07-25T10:54:30;97231.84;;;31.59;36.53
30873;BME280;17579;42.690;2.586;2022-07-25T10:56:58;97219.53;;;31.56;36.66
30873;BME280;17579;42.690;2.586;2022-07-25T10:59:44;97221.22;;;31.52;36.87
30873;BME280;17579;42.690;2.586;2022-07-25T11:02:11;97215.47;;;31.54;36.96
30873;BME280;17579;42.690;2.586;2022-07-25T11:04:44;97218.50;;;31.52;37.12
30873;BME280;17579;42.690;2.586;2022-07-25T11:07:12;97219.28;;;31.53;36.62
30873;BME280;17579;42.690;2.586;2022-07-25T11:09:39;97210.28;;;31.57;37.07
30873;BME280;17579;42.690;2.586;2022-07-25T11:12:06;97214.06;;;31.67;36.68
30873;BME280;17579;42.690;2.586;2022-07-25T11:14:35;97213.69;;;31.78;36.76
30873;BME280;17579;42.690;2.586;2022-07-25T11:17:22;97197.28;;;31.78;36.65
30873;BME280;17579;42.690;2.586;2022-07-25T11:20:05;97205.53;;;31.73;36.60
30873;BME280;17579;42.690;2.586;2022-07-25T11:22:32;97208.53;;;31.72;36.71
30873;BME280;17579;42.690;2.586;2022-07-25T11:24:59;97203.84;;;31.83;36.19
30873;BME280;17579;42.690;2.586;2022-07-25T11:27:31;97212.59;;;31.80;36.33
30873;BME280;17579;42.690;2.586;2022-07-25T11:30:11;97202.00;;;31.68;36.35
30873;BME280;17579;42.690;2.586;2022-07-25T11:32:49;97211.03;;;31.68;36.20
30873;BME280;17579;42.690;2.586;2022-07-25T11:35:15;97206.16;;;31.60;36.23
30873;BME280;17579;42.690;2.586;2022-07-25T11:37:45;97203.72;;;31.58;36.58
30873;BME280;17579;42.690;2.586;2022-07-25T11:40:14;97201.72;;;31.69;36.68
30873;BME280;17579;42.690;2.586;2022-07-25T11:42:45;97211.75;;;31.84;36.40
30873;BME280;17579;42.690;2.586;2022-07-25T11:45:29;97212.56;;;31.85;36.15
30873;BME280;17579;42.690;2.586;2022-07-25T11:48:07;97209.22;;;31.93;36.17
30873;BME280;17579;42.690;2.586;2022-07-25T11:50:38;97200.47;;;31.91;36.01
30873;BME280;17579;42.690;2.586;2022-07-25T11:53:07;97195.00;;;31.91;35.91
30873;BME280;17579;42.690;2.586;2022-07-25T11:55:36;97199.09;;;31.93;35.53
30873;BME280;17579;42.690;2.586;2022-07-25T11:58:05;97185.09;;;32.00;35.48
30873;BME280;17579;42.690;2.586;2022-07-25T12:00:43;97196.53;;;32.07;35.91
30873;BME280;17579;42.690;2.586;2022-07-25T12:03:12;97207.47;;;32.12;35.55
30873;BME280;17579;42.690;2.586;2022-07-25T12:05:38;97214.28;;;32.10;35.47
30873;BME280;17579;42.690;2.586;2022-07-25T12:08:12;97194.53;;;32.18;35.10
30873;BME280;17579;42.690;2.586;2022-07-25T12:10:39;97209.63;;;32.16;34.93
30873;BME280;17579;42.690;2.586;2022-07-25T12:13:05;97199.78;;;32.15;34.99
30873;BME280;17579;42.690;2.586;2022-07-25T12:15:39;97188.25;;;32.18;34.77
30873;BME280;17579;42.690;2.586;2022-07-25T12:18:06;97209.09;;;32.13;34.83
30873;BME280;17579;42.690;2.586;2022-07-25T12:20:41;97207.13;;;31.80;35.28
30873;BME280;17579;42.690;2.586;2022-07-25T12:23:09;97208.41;;;31.42;35.57
30873;BME280;17579;42.690;2.586;2022-07-25T12:25:37;97210.16;;;31.23;36.06
30873;BME280;17579;42.690;2.586;2022-07-25T12:28:03;97223.88;;;31.07;36.33
30873;BME280;17579;42.690;2.586;2022-07-25T12:30:30;97230.44;;;30.86;36.73
30873;BME280;17579;42.690;2.586;2022-07-25T12:32:57;97219.25;;;30.92;36.52
30873;BME280;17579;42.690;2.586;2022-07-25T12:35:24;97227.19;;;30.89;36.74
30873;BME280;17579;42.690;2.586;2022-07-25T12:37:50;97215.75;;;30.82;36.43
30873;BME280;17579;42.690;2.586;2022-07-25T12:40:18;97222.31;;;30.60;36.83
30873;BME280;17579;42.690;2.586;2022-07-25T12:42:47;97209.50;;;30.40;37.08
30873;BME280;17579;42.690;2.586;2022-07-25T12:45:13;97198.06;;;30.22;37.46
30873;BME280;17579;42.690;2.586;2022-07-25T12:47:43;97183.06;;;30.04;37.47
30873;BME280;17579;42.690;2.586;2022-07-25T12:50:09;97191.78;;;29.91;37.82
30873;BME280;17579;42.690;2.586;2022-07-25T12:52:35;97190.66;;;29.82;38.17
30873;BME280;17579;42.690;2.586;2022-07-25T12:55:03;97195.25;;;29.71;38.39
30873;BME280;17579;42.690;2.586;2022-07-25T12:57:29;97208.09;;;29.65;38.47
30873;BME280;17579;42.690;2.586;2022-07-25T12:59:55;97211.88;;;29.59;38.77
30873;BME280;17579;42.690;2.586;2022-07-25T13:02:21;97231.44;;;29.41;38.79
30873;BME280;17579;42.690;2.586;2022-07-25T13:04:46;97223.25;;;29.25;39.01
30873;BME280;17579;42.690;2.586;2022-07-25T13:07:13;97205.47;;;29.12;39.42
30873;BME280;17579;42.690;2.586;2022-07-25T13:09:40;97206.47;;;28.96;39.78